Time;durP1;ratioP1;P1;durP2;ratioP2;P2;SDS_P1;SDS_P2;PMS_P1;PMS_P2;Temp;Humidity;BMP_temperature;BMP_pressure;BME280_temperature;BME280_humidity;BME280_pressure;Samples;Min_cycle;Max_cycle;Signal;HPM_P1;HPM_P2
2021/06/10 00:02:14;;;;;;;10.23;5.90;;;16.70;99.90;;;;;;5086216;28;20029;-87
2021/06/10 00:04:41;;;;;;;7.82;5.43;;;16.70;99.90;;;;;;5087124;28;20386;-87
2021/06/10 00:07:06;;;;;;;9.10;5.82;;;17.00;99.90;;;;;;5097135;28;20040;-87
2021/06/10 00:09:32;;;;;;;7.78;6.00;;;16.70;99.90;;;;;;5092704;28;20035;-87
2021/06/10 00:11:58;;;;;;;8.45;6.10;;;16.70;99.90;;;;;;5080391;28;20077;-87
2021/06/10 00:14:23;;;;;;;13.30;6.45;;;16.70;99.90;;;;;;5072510;28;20013;-87
2021/06/10 00:16:49;;;;;;;10.52;6.25;;;16.90;99.90;;;;;;5084555;28;20035;-87
2021/06/10 00:19:15;;;;;;;8.13;5.45;;;16.70;99.90;;;;;;5090305;28;20567;-87
2021/06/10 00:21:41;;;;;;;9.88;6.70;;;16.70;99.90;;;;;;5092052;28;20361;-87
2021/06/10 00:24:07;;;;;;;8.73;6.15;;;16.70;99.90;;;;;;5073807;28;20043;-87
2021/06/10 00:26:36;;;;;;;9.45;6.20;;;16.60;99.90;;;;;;5071510;28;20056;-87
2021/06/10 00:29:02;;;;;;;10.30;5.93;;;16.70;99.90;;;;;;5069077;28;20067;-87
2021/06/10 00:31:28;;;;;;;9.00;6.05;;;16.60;99.90;;;;;;5067270;28;20396;-86
2021/06/10 00:33:53;;;;;;;8.10;5.65;;;16.60;99.90;;;;;;5069415;28;20025;-87
2021/06/10 00:36:19;;;;;;;8.52;5.57;;;16.60;99.90;;;;;;5068541;28;20029;-87
2021/06/10 00:38:46;;;;;;;7.57;5.57;;;17.00;99.90;;;;;;5069085;28;20051;-87
2021/06/10 00:41:13;;;;;;;8.23;5.28;;;16.60;99.90;;;;;;5089018;28;20119;-87
2021/06/10 00:43:39;;;;;;;8.68;5.90;;;16.60;99.90;;;;;;5090074;28;20397;-87
2021/06/10 00:46:05;;;;;;;9.30;6.10;;;16.60;99.90;;;;;;5090362;28;20103;-87
2021/06/10 00:48:30;;;;;;;7.93;5.20;;;16.60;99.90;;;;;;5088754;22;20408;-86
2021/06/10 00:50:57;;;;;;;8.07;5.72;;;16.50;99.90;;;;;;5089473;28;20051;-86
2021/06/10 00:53:22;;;;;;;7.90;5.65;;;16.50;99.90;;;;;;5066963;28;20020;-85
2021/06/10 00:55:50;;;;;;;12.43;6.63;;;16.40;99.90;;;;;;5086797;28;20073;-86
2021/06/10 00:58:16;;;;;;;11.27;6.13;;;16.40;99.90;;;;;;5070998;28;20028;-86
2021/06/10 01:00:42;;;;;;;9.57;5.68;;;16.30;99.90;;;;;;5051860;28;20020;-86
2021/06/10 01:03:08;;;;;;;8.75;5.95;;;16.40;99.90;;;;;;5062089;28;20034;-86
2021/06/10 01:05:34;;;;;;;8.07;6.07;;;16.30;99.90;;;;;;5089792;28;20028;-86
2021/06/10 01:08:24;;;;;;;10.75;6.22;;;16.30;99.90;;;;;;5071947;28;20043;-86
2021/06/10 01:11:08;;;;;;;9.38;6.22;;;16.20;99.90;;;;;;5071600;28;20056;-86
2021/06/10 01:13:52;;;;;;;10.52;6.13;;;16.20;99.90;;;;;;5098641;28;20016;-86
2021/06/10 01:16:21;;;;;;;11.10;6.95;;;16.20;99.90;;;;;;5085879;28;20020;-85
2021/06/10 01:18:48;;;;;;;11.68;7.38;;;16.20;99.90;;;;;;5097974;28;20034;-85
2021/06/10 01:21:16;;;;;;;9.98;6.45;;;16.20;99.90;;;;;;5081977;28;20024;-86
2021/06/10 01:24:13;;;;;;;11.52;7.15;;;16.10;99.90;;;;;;5064884;28;20025;-85
2021/06/10 01:26:58;;;;;;;11.27;6.38;;;16.10;99.90;;;;;;5081905;28;20480;-86
2021/06/10 01:29:25;;;;;;;9.70;6.10;;;16.10;99.90;;;;;;5077466;28;20089;-86
2021/06/10 01:31:51;;;;;;;10.20;5.90;;;16.00;99.90;;;;;;5083139;28;20039;-85
2021/06/10 01:34:18;;;;;;;9.02;6.40;;;16.10;99.90;;;;;;5084008;28;20024;-86
2021/06/10 01:36:46;;;;;;;8.88;6.68;;;16.10;99.90;;;;;;5088588;28;20029;-85
2021/06/10 01:39:17;;;;;;;10.20;6.82;;;16.10;99.90;;;;;;5079981;28;20124;-85
2021/06/10 01:41:43;;;;;;;10.70;6.88;;;16.20;99.90;;;;;;5062137;28;20079;-86
2021/06/10 01:44:11;;;;;;;9.45;6.60;;;16.00;99.90;;;;;;5060714;28;20035;-86
2021/06/10 01:46:37;;;;;;;9.52;6.75;;;16.20;99.90;;;;;;5080084;28;20107;-86
2021/06/10 01:49:06;;;;;;;8.55;5.53;;;16.00;99.90;;;;;;5079869;28;20104;-86
2021/06/10 01:51:33;;;;;;;9.93;6.47;;;16.00;99.90;;;;;;5078991;28;20028;-86
2021/06/10 01:54:02;;;;;;;9.57;6.45;;;16.00;99.90;;;;;;5082160;28;20542;-86
2021/06/10 01:56:29;;;;;;;7.93;5.82;;;16.10;99.90;;;;;;5062170;28;20020;-86
2021/06/10 01:58:55;;;;;;;9.95;6.18;;;16.00;99.90;;;;;;5072190;28;20527;-84
2021/06/10 02:01:30;;;;;;;9.45;5.93;;;16.00;99.90;;;;;;5101583;28;20043;-86
2021/06/10 02:03:58;;;;;;;9.05;6.25;;;16.00;99.90;;;;;;5075020;28;20036;-86
2021/06/10 02:06:25;;;;;;;10.35;6.22;;;15.90;99.90;;;;;;5079605;28;20437;-86
2021/06/10 02:08:51;;;;;;;8.88;5.90;;;16.00;99.90;;;;;;5061788;28;20143;-85
2021/06/10 02:11:17;;;;;;;9.05;6.43;;;15.90;99.90;;;;;;5061390;28;20064;-86
2021/06/10 02:13:44;;;;;;;9.10;6.00;;;15.90;99.90;;;;;;5061503;28;20368;-86
2021/06/10 02:16:12;;;;;;;9.27;6.03;;;15.90;99.90;;;;;;5079477;28;20171;-86
2021/06/10 02:18:40;;;;;;;8.73;6.28;;;15.90;99.90;;;;;;5076505;28;20029;-86
2021/06/10 02:21:08;;;;;;;9.32;6.47;;;15.80;99.90;;;;;;5079704;28;20085;-85
2021/06/10 02:23:39;;;;;;;9.68;6.20;;;15.80;99.90;;;;;;5081117;28;20293;-87
2021/06/10 02:26:06;;;;;;;9.85;6.70;;;15.80;99.90;;;;;;5079213;28;20712;-86
2021/06/10 02:28:32;;;;;;;8.60;5.80;;;15.80;99.90;;;;;;5078967;28;20119;-86
2021/06/10 02:30:59;;;;;;;10.38;6.35;;;15.80;99.90;;;;;;5078195;28;20078;-86
2021/06/10 02:33:25;;;;;;;8.68;5.55;;;15.80;99.90;;;;;;5072854;28;20028;-85
2021/06/10 02:35:51;;;;;;;10.52;6.38;;;15.70;99.90;;;;;;5072187;28;20355;-85
2021/06/10 02:38:20;;;;;;;9.05;5.43;;;15.70;99.90;;;;;;5070951;28;20044;-86
2021/06/10 02:40:50;;;;;;;10.18;6.05;;;15.60;99.90;;;;;;5055990;28;20055;-86
2021/06/10 02:43:17;;;;;;;12.25;6.72;;;15.60;99.90;;;;;;5072237;28;20024;-86
2021/06/10 02:45:47;;;;;;;12.90;6.40;;;15.50;99.90;;;;;;5068090;28;20537;-86
2021/06/10 02:48:14;;;;;;;9.18;5.97;;;15.50;99.90;;;;;;5070186;28;20039;-86
2021/06/10 02:50:41;;;;;;;8.60;6.07;;;15.50;99.90;;;;;;5071643;28;20030;-86
2021/06/10 02:53:14;;;;;;;9.75;5.80;;;15.50;99.90;;;;;;5071715;28;20024;-86
2021/06/10 02:55:41;;;;;;;8.80;6.03;;;15.50;99.90;;;;;;5053558;28;20069;-86
2021/06/10 02:58:07;;;;;;;8.13;5.75;;;15.50;99.90;;;;;;5075568;28;20018;-86
2021/06/10 03:00:34;;;;;;;8.93;5.90;;;15.50;99.90;;;;;;5089046;28;20023;-86
2021/06/10 03:03:01;;;;;;;8.00;5.78;;;15.50;99.90;;;;;;5079185;28;20016;-85
2021/06/10 03:05:28;;;;;;;10.00;6.28;;;15.50;99.90;;;;;;5073090;28;20017;-86
2021/06/10 03:07:55;;;;;;;9.82;6.57;;;15.50;99.90;;;;;;5073486;28;20250;-86
2021/06/10 03:10:27;;;;;;;8.15;5.82;;;15.40;99.90;;;;;;5073322;28;20020;-86
2021/06/10 03:12:54;;;;;;;10.48;6.10;;;15.50;99.90;;;;;;5066300;28;20021;-86
2021/06/10 03:15:21;;;;;;;9.35;6.15;;;15.40;99.90;;;;;;5053292;28;20035;-86
2021/06/10 03:17:48;;;;;;;8.13;5.65;;;15.40;99.90;;;;;;5071380;28;20025;-85
2021/06/10 03:20:14;;;;;;;8.82;5.97;;;15.30;99.90;;;;;;5080675;28;20139;-86
2021/06/10 03:22:39;;;;;;;13.32;6.57;;;15.30;99.90;;;;;;5068329;28;20032;-86
2021/06/10 03:25:08;;;;;;;8.25;6.40;;;15.30;99.90;;;;;;5070779;28;20481;-86
2021/06/10 03:27:35;;;;;;;9.05;6.07;;;15.30;99.90;;;;;;5053015;28;20561;-85
2021/06/10 03:30:03;;;;;;;8.07;6.05;;;15.30;99.90;;;;;;5071221;28;20056;-86
2021/06/10 03:32:29;;;;;;;10.73;6.55;;;15.30;99.90;;;;;;5070845;28;20036;-86
2021/06/10 03:34:55;;;;;;;8.73;5.72;;;15.30;99.90;;;;;;5068808;28;20373;-86
2021/06/10 03:37:22;;;;;;;9.38;6.25;;;15.30;99.90;;;;;;5071374;28;20020;-86
2021/06/10 03:39:50;;;;;;;9.60;6.25;;;15.30;99.90;;;;;;5074298;28;20020;-86
2021/06/10 03:42:20;;;;;;;9.05;6.15;;;15.30;99.90;;;;;;5058284;28;20124;-86
2021/06/10 03:44:48;;;;;;;9.70;6.47;;;15.40;99.90;;;;;;5052646;28;20032;-86
2021/06/10 03:47:15;;;;;;;10.23;6.47;;;15.40;99.90;;;;;;5070966;28;20388;-86
2021/06/10 03:49:40;;;;;;;10.20;6.68;;;15.30;99.90;;;;;;5053586;28;20086;-86
2021/06/10 03:52:07;;;;;;;11.63;6.85;;;15.30;99.90;;;;;;5052468;28;20432;-86
2021/06/10 03:54:33;;;;;;;9.43;6.40;;;15.30;99.90;;;;;;5052377;28;20020;-86
2021/06/10 03:56:58;;;;;;;10.25;6.90;;;15.30;99.90;;;;;;5052531;28;20552;-86
2021/06/10 03:59:24;;;;;;;9.32;6.55;;;15.30;99.90;;;;;;5062617;28;20041;-86
2021/06/10 04:01:50;;;;;;;10.48;6.88;;;15.30;99.90;;;;;;5076476;28;20063;-86
2021/06/10 04:04:17;;;;;;;14.52;6.97;;;15.20;99.90;;;;;;5090325;28;20032;-85
2021/06/10 04:06:43;;;;;;;9.02;6.60;;;15.30;99.90;;;;;;5068686;28;20024;-86
2021/06/10 04:09:09;;;;;;;10.93;7.43;;;15.30;99.90;;;;;;5069995;28;20104;-86
2021/06/10 04:11:37;;;;;;;9.48;6.55;;;15.20;99.90;;;;;;5070537;28;20044;-86
2021/06/10 04:14:03;;;;;;;9.18;6.60;;;15.30;99.90;;;;;;5074772;28;20480;-86
2021/06/10 04:16:29;;;;;;;9.35;6.50;;;15.40;99.90;;;;;;5063890;28;20091;-86
2021/06/10 04:18:55;;;;;;;9.32;6.18;;;15.40;99.90;;;;;;5072219;28;20028;-86
2021/06/10 04:21:21;;;;;;;10.93;6.95;;;15.40;99.90;;;;;;5072212;28;20028;-86
2021/06/10 04:23:47;;;;;;;9.50;6.75;;;15.50;99.90;;;;;;5088401;28;20020;-86
2021/06/10 04:26:13;;;;;;;11.05;7.20;;;15.40;99.90;;;;;;5052450;28;20025;-86
2021/06/10 04:28:39;;;;;;;11.02;7.07;;;15.50;99.90;;;;;;5052415;28;20028;-86
2021/06/10 04:31:05;;;;;;;10.57;7.70;;;15.50;99.90;;;;;;5070223;28;20028;-86
2021/06/10 04:33:30;;;;;;;11.68;7.70;;;15.40;99.90;;;;;;5082345;28;20103;-86
2021/06/10 04:35:56;;;;;;;12.43;6.93;;;15.20;99.90;;;;;;5090351;28;20104;-86
2021/06/10 04:38:22;;;;;;;9.68;6.70;;;15.20;99.90;;;;;;5089730;28;20028;-86
2021/06/10 04:40:47;;;;;;;11.85;7.63;;;15.30;99.90;;;;;;5069328;28;20031;-86
2021/06/10 04:43:14;;;;;;;13.65;8.25;;;15.30;99.90;;;;;;5076594;28;20052;-85
2021/06/10 04:45:39;;;;;;;11.10;6.90;;;15.40;99.90;;;;;;5065394;28;20020;-86
2021/06/10 04:48:06;;;;;;;10.32;7.35;;;15.30;99.90;;;;;;5059173;28;20099;-85
2021/06/10 04:50:34;;;;;;;10.55;7.00;;;15.20;99.90;;;;;;5064542;28;20021;-86
2021/06/10 04:52:59;;;;;;;11.50;7.80;;;15.10;99.90;;;;;;5074414;28;20389;-86
2021/06/10 04:55:25;;;;;;;12.00;7.88;;;15.00;99.90;;;;;;5085223;28;20022;-86
2021/06/10 04:57:51;;;;;;;12.07;7.75;;;15.00;99.90;;;;;;5071911;28;20127;-86
2021/06/10 05:00:17;;;;;;;11.82;7.45;;;14.90;99.90;;;;;;5074361;28;20056;-86
2021/06/10 05:02:43;;;;;;;9.88;6.75;;;15.00;99.90;;;;;;5068365;28;20101;-86
2021/06/10 05:05:09;;;;;;;9.25;6.53;;;15.20;99.90;;;;;;5071004;28;20036;-86
2021/06/10 05:07:35;;;;;;;12.60;6.72;;;15.40;99.90;;;;;;5078767;28;20032;-86
2021/06/10 05:10:00;;;;;;;11.40;8.02;;;15.50;99.90;;;;;;5066126;28;20618;-86
2021/06/10 05:12:26;;;;;;;12.63;7.63;;;15.50;99.90;;;;;;5076807;28;20110;-85
2021/06/10 05:14:52;;;;;;;12.80;6.82;;;15.50;99.90;;;;;;5057004;28;20028;-86
2021/06/10 05:17:18;;;;;;;9.95;7.03;;;15.50;99.90;;;;;;5084864;28;20510;-85
2021/06/10 05:19:43;;;;;;;10.63;6.95;;;15.60;99.90;;;;;;5090892;28;20391;-86
2021/06/10 05:22:09;;;;;;;10.18;7.05;;;15.70;99.90;;;;;;5075451;28;20082;-85
2021/06/10 05:24:35;;;;;;;8.48;6.07;;;15.80;99.90;;;;;;5074180;28;20561;-86
2021/06/10 05:27:01;;;;;;;9.00;6.50;;;15.90;99.90;;;;;;5062785;28;20035;-86
2021/06/10 05:29:27;;;;;;;9.65;6.43;;;16.20;99.90;;;;;;5073804;28;20028;-85
2021/06/10 05:31:53;;;;;;;10.68;6.38;;;16.30;99.90;;;;;;5083824;28;20648;-86
2021/06/10 05:34:19;;;;;;;11.07;6.70;;;16.60;99.90;;;;;;5072285;28;20028;-86
2021/06/10 05:36:44;;;;;;;10.43;5.57;;;16.90;99.90;;;;;;5067929;28;20428;-86
2021/06/10 05:39:11;;;;;;;7.75;5.63;;;16.60;99.90;;;;;;5065010;28;20385;-86
2021/06/10 05:41:37;;;;;;;9.90;6.78;;;16.80;99.90;;;;;;5071339;28;20055;-87
2021/06/10 05:44:03;;;;;;;15.63;6.70;;;16.90;99.90;;;;;;5069055;28;20054;-87
2021/06/10 05:46:29;;;;;;;15.05;7.15;;;17.00;99.90;;;;;;5067866;28;20628;-86
2021/06/10 05:48:54;;;;;;;10.07;6.82;;;17.10;99.90;;;;;;5065832;28;20043;-86
2021/06/10 05:51:20;;;;;;;11.50;6.50;;;17.20;99.90;;;;;;5055409;28;20016;-86
2021/06/10 05:53:49;;;;;;;9.07;5.97;;;17.40;99.90;;;;;;5059344;28;20085;-86
2021/06/10 05:56:15;;;;;;;9.38;6.50;;;17.40;99.90;;;;;;5064514;28;20060;-86
2021/06/10 05:58:40;;;;;;;11.30;5.80;;;17.50;99.90;;;;;;5063308;28;20074;-86
2021/06/10 06:01:06;;;;;;;9.38;5.90;;;17.50;99.90;;;;;;5093305;28;20020;-87
2021/06/10 06:03:32;;;;;;;9.15;5.53;;;17.50;99.90;;;;;;5081237;28;20103;-86
2021/06/10 06:05:58;;;;;;;8.63;5.95;;;17.60;99.90;;;;;;5082847;28;20039;-86
2021/06/10 06:08:24;;;;;;;9.48;6.30;;;17.80;99.90;;;;;;5062490;28;20510;-86
2021/06/10 06:10:51;;;;;;;8.15;5.57;;;17.90;99.90;;;;;;5071868;28;20103;-86
2021/06/10 06:13:24;;;;;;;11.13;5.63;;;18.20;99.90;;;;;;5075517;28;20471;-86
2021/06/10 06:15:51;;;;;;;9.20;5.68;;;18.20;99.90;;;;;;5070160;28;20039;-86
2021/06/10 06:18:17;;;;;;;8.45;6.05;;;18.20;99.90;;;;;;5075021;28;20112;-87
2021/06/10 06:20:43;;;;;;;9.95;6.13;;;18.40;99.90;;;;;;5085032;28;20024;-86
2021/06/10 06:23:09;;;;;;;8.98;6.50;;;18.40;99.90;;;;;;5056747;28;20028;-85
2021/06/10 06:25:35;;;;;;;10.77;6.35;;;18.30;99.90;;;;;;5067657;28;20442;-85
2021/06/10 06:28:00;;;;;;;10.02;6.18;;;18.50;99.90;;;;;;5074589;28;20024;-87
2021/06/10 06:30:26;;;;;;;8.60;5.78;;;18.60;99.90;;;;;;5091902;28;20020;-85
2021/06/10 06:32:52;;;;;;;8.38;6.25;;;18.50;99.90;;;;;;5073835;28;20369;-86
2021/06/10 06:35:17;;;;;;;8.00;5.53;;;18.60;99.90;;;;;;5090289;28;20024;-86
2021/06/10 06:37:43;;;;;;;8.60;5.70;;;18.70;99.90;;;;;;5059542;28;20070;-87
2021/06/10 06:40:09;;;;;;;10.00;5.97;;;18.70;99.90;;;;;;5058453;28;20358;-87
2021/06/10 06:42:36;;;;;;;7.47;5.10;;;18.70;99.90;;;;;;5068170;28;20028;-88
2021/06/10 06:45:04;;;;;;;8.82;5.57;;;18.70;99.90;;;;;;5077588;28;20031;-83
2021/06/10 06:47:29;;;;;;;11.27;6.28;;;18.90;99.90;;;;;;5069205;28;20572;-88
2021/06/10 06:49:55;;;;;;;8.43;5.80;;;18.90;99.90;;;;;;5069361;28;20071;-87
2021/06/10 06:52:21;;;;;;;9.30;5.95;;;19.00;99.90;;;;;;5088190;28;20028;-87
2021/06/10 06:54:46;;;;;;;10.23;5.60;;;19.10;99.90;;;;;;5059997;28;20016;-87
2021/06/10 06:57:24;;;;;;;8.32;5.47;;;19.20;99.90;;;;;;5056288;28;20056;-87
2021/06/10 06:59:50;;;;;;;7.80;5.60;;;19.40;99.90;;;;;;5070966;28;20036;-87
2021/06/10 07:02:18;;;;;;;7.90;5.43;;;19.60;99.90;;;;;;5081634;28;20032;-87
2021/06/10 07:04:44;;;;;;;11.55;5.07;;;19.50;99.90;;;;;;5084479;28;20028;-87
2021/06/10 07:07:10;;;;;;;8.93;5.55;;;19.70;99.90;;;;;;5086733;28;20048;-87
2021/06/10 07:09:39;;;;;;;7.65;5.50;;;19.80;99.90;;;;;;5066770;28;20593;-87
2021/06/10 07:12:05;;;;;;;9.82;5.93;;;19.70;99.90;;;;;;5091006;28;20039;-87
2021/06/10 07:14:32;;;;;;;7.70;5.38;;;19.90;99.90;;;;;;5093220;28;20031;-87
2021/06/10 07:16:58;;;;;;;7.55;5.47;;;20.10;99.90;;;;;;5063069;28;20071;-87
2021/06/10 07:19:24;;;;;;;7.55;5.57;;;20.40;99.90;;;;;;5064908;28;20098;-87
2021/06/10 07:21:51;;;;;;;8.05;5.05;;;20.60;99.90;;;;;;5073407;28;20023;-88
2021/06/10 07:24:17;;;;;;;8.10;5.10;;;20.80;99.90;;;;;;5073221;28;20089;-87
2021/06/10 07:26:44;;;;;;;12.10;4.95;;;21.00;99.90;;;;;;5073671;28;20040;-88
2021/06/10 07:29:16;;;;;;;9.13;5.13;;;21.20;99.90;;;;;;5069216;28;20052;-87
2021/06/10 07:31:42;;;;;;;6.80;4.90;;;21.40;99.90;;;;;;5071406;28;20078;-88
2021/06/10 07:34:08;;;;;;;8.68;5.30;;;21.50;99.90;;;;;;5059638;28;20039;-88
2021/06/10 07:36:42;;;;;;;7.50;4.70;;;21.70;99.90;;;;;;5062220;28;20042;-89
2021/06/10 07:39:10;;;;;;;6.30;4.65;;;21.60;99.90;;;;;;5073446;28;20341;-89
2021/06/10 07:41:37;;;;;;;8.82;5.88;;;21.80;99.90;;;;;;5073446;28;20506;-89
2021/06/10 07:44:03;;;;;;;7.53;5.00;;;21.60;99.90;;;;;;5056499;28;20055;-89
2021/06/10 07:46:29;;;;;;;8.52;5.07;;;21.60;99.90;;;;;;5053934;28;20028;-88
2021/06/10 07:48:54;;;;;;;10.35;6.10;;;21.80;99.90;;;;;;5054034;28;20478;-88
2021/06/10 07:51:27;;;;;;;8.48;5.65;;;21.70;99.90;;;;;;5064612;28;20915;-91
2021/06/10 07:53:53;;;;;;;9.02;4.85;;;21.90;99.90;;;;;;5080431;28;20108;-87
2021/06/10 07:56:19;;;;;;;7.70;5.55;;;22.20;99.90;;;;;;5068890;28;20111;-87
2021/06/10 07:58:44;;;;;;;8.05;5.03;;;22.30;99.90;;;;;;5064271;28;20810;-87
2021/06/10 08:01:10;;;;;;;7.40;4.60;;;22.40;99.90;;;;;;5083973;28;20526;-88
2021/06/10 08:03:37;;;;;;;7.72;5.35;;;22.70;99.90;;;;;;5070088;28;20023;-87
2021/06/10 08:06:02;;;;;;;7.63;5.45;;;22.60;99.90;;;;;;5086838;22;20055;-81
2021/06/10 08:08:28;;;;;;;8.73;5.50;;;22.60;99.90;;;;;;5048300;28;20034;-84
2021/06/10 08:10:54;;;;;;;9.52;4.90;;;22.70;99.90;;;;;;5050716;28;20063;-83
2021/06/10 08:13:24;;;;;;;8.63;5.63;;;22.90;99.90;;;;;;5049250;28;20020;-84
2021/06/10 08:15:53;;;;;;;10.15;6.15;;;23.10;99.90;;;;;;5046541;28;20060;-83
2021/06/10 08:18:19;;;;;;;10.27;5.70;;;22.90;99.90;;;;;;5055824;28;20025;-83
2021/06/10 08:20:45;;;;;;;9.15;6.40;;;23.10;99.90;;;;;;5051358;28;20370;-81
2021/06/10 08:23:11;;;;;;;9.38;6.82;;;22.50;99.90;;;;;;5060048;28;20139;-81
2021/06/10 08:25:43;;;;;;;8.02;6.03;;;22.50;99.90;;;;;;5032630;28;20021;-82
2021/06/10 08:28:09;;;;;;;10.40;6.10;;;22.30;99.90;;;;;;5042171;28;20020;-80
2021/06/10 08:30:35;;;;;;;8.32;5.88;;;22.50;99.90;;;;;;5038349;28;20037;-82
2021/06/10 08:33:01;;;;;;;9.25;5.90;;;22.70;99.90;;;;;;5042304;28;20034;-83
2021/06/10 08:35:27;;;;;;;7.45;5.53;;;22.90;99.90;;;;;;5046617;28;20025;-82
2021/06/10 08:37:53;;;;;;;9.88;5.43;;;23.30;99.90;;;;;;5057204;28;20017;-83
2021/06/10 08:40:19;;;;;;;9.93;6.18;;;23.50;99.90;;;;;;5052866;28;20025;-82
2021/06/10 08:42:47;;;;;;;8.65;6.05;;;23.50;99.90;;;;;;5052286;28;20430;-82
2021/06/10 08:45:16;;;;;;;8.75;5.88;;;23.60;99.90;;;;;;5049058;28;20033;-82
2021/06/10 08:47:47;;;;;;;11.70;6.10;;;23.80;99.90;;;;;;5034374;28;20025;-82
2021/06/10 08:50:18;;;;;;;7.57;5.45;;;24.00;99.90;;;;;;5052528;28;20141;-83
2021/06/10 08:52:44;;;;;;;8.40;5.85;;;24.10;99.90;;;;;;5053254;28;20037;-82
2021/06/10 08:55:12;;;;;;;8.55;5.28;;;24.40;99.90;;;;;;5030816;28;20047;-83
2021/06/10 08:57:38;;;;;;;7.85;5.22;;;24.40;99.90;;;;;;5051262;28;20590;-83
2021/06/10 09:00:05;;;;;;;9.23;5.65;;;24.50;99.90;;;;;;5050898;28;20101;-83
2021/06/10 09:02:31;;;;;;;9.70;5.25;;;24.70;99.90;;;;;;5049378;28;20481;-82
2021/06/10 09:05:08;;;;;;;8.20;5.03;;;24.90;99.90;;;;;;5030935;28;20027;-82
2021/06/10 09:07:35;;;;;;;6.97;5.15;;;24.90;99.90;;;;;;5049679;28;20393;-82
2021/06/10 09:10:02;;;;;;;7.38;5.47;;;25.00;99.90;;;;;;5021501;28;20029;-82
2021/06/10 09:12:28;;;;;;;7.63;5.68;;;25.10;99.90;;;;;;5041768;28;20099;-83
2021/06/10 09:15:05;;;;;;;8.02;5.85;;;25.00;99.90;;;;;;5025124;28;20033;-82
2021/06/10 09:17:42;;;;;;;7.32;5.50;;;25.10;99.90;;;;;;5021266;28;20169;-81
2021/06/10 09:20:20;;;;;;;9.82;6.65;;;25.30;99.90;;;;;;5030506;28;20025;-82
2021/06/10 09:22:47;;;;;;;9.70;6.55;;;24.90;99.90;;;;;;5046031;28;20126;-82
2021/06/10 09:25:16;;;;;;;8.85;5.95;;;25.30;99.90;;;;;;5049626;28;20028;-82
2021/06/10 09:28:01;;;;;;;8.13;5.50;;;25.00;99.90;;;;;;5035626;28;20071;-80
2021/06/10 09:30:28;;;;;;;7.95;5.60;;;25.10;99.90;;;;;;5045778;28;20025;-83
2021/06/10 09:32:54;;;;;;;8.10;6.15;;;25.50;99.90;;;;;;5041552;28;20045;-82
2021/06/10 09:35:28;;;;;;;7.20;5.78;;;25.10;99.90;;;;;;5066373;28;20017;-81
2021/06/10 09:37:58;;;;;;;7.55;5.70;;;24.90;99.90;;;;;;5035014;28;20477;-81
2021/06/10 09:40:24;;;;;;;9.00;5.90;;;24.90;99.90;;;;;;5052367;28;20039;-82
2021/06/10 09:42:50;;;;;;;6.65;4.95;;;25.00;99.90;;;;;;5055147;28;20021;-81
2021/06/10 09:45:23;;;;;;;9.00;6.25;;;25.10;99.90;;;;;;5049297;28;20032;-80
2021/06/10 09:47:53;;;;;;;8.43;6.45;;;25.10;99.90;;;;;;5054309;28;20025;-81
2021/06/10 09:50:26;;;;;;;9.10;6.97;;;25.00;99.90;;;;;;5054105;28;20112;-82
2021/06/10 09:52:56;;;;;;;10.35;6.72;;;24.80;99.90;;;;;;5032843;28;20109;-81
2021/06/10 09:55:35;;;;;;;8.95;6.93;;;25.10;99.90;;;;;;5030061;28;20029;-82
2021/06/10 09:58:13;;;;;;;8.82;6.60;;;25.50;99.90;;;;;;5038319;28;20032;-82
2021/06/10 10:00:52;;;;;;;11.80;7.78;;;25.70;99.90;;;;;;5053955;28;20086;-81
2021/06/10 10:03:28;;;;;;;10.98;7.18;;;25.90;99.90;;;;;;5053538;28;20021;-82
2021/06/10 10:06:04;;;;;;;10.07;7.10;;;25.90;99.90;;;;;;5050708;28;20370;-81
2021/06/10 10:08:31;;;;;;;12.00;6.85;;;25.90;99.90;;;;;;5033212;28;20025;-82
2021/06/10 10:10:58;;;;;;;9.13;6.75;;;26.20;99.30;;;;;;5051662;28;20025;-81
2021/06/10 10:13:29;;;;;;;10.32;7.50;;;26.20;99.60;;;;;;5046831;28;20025;-82
2021/06/10 10:15:58;;;;;;;;;;;26.20;98.70;;;;;;5049609;28;20401;-83
2021/06/10 10:18:24;;;;;;;10.32;7.50;;;26.20;98.60;;;;;;5051560;28;19991;-81
2021/06/10 10:20:50;;;;;;;8.57;7.10;;;26.20;98.80;;;;;;5051998;28;20074;-82
2021/06/10 10:23:19;;;;;;;12.65;7.45;;;26.40;99.20;;;;;;5053095;28;20341;-82
2021/06/10 10:25:44;;;;;;;9.40;7.05;;;26.50;97.90;;;;;;5050377;28;20501;-81
2021/06/10 10:28:12;;;;;;;9.00;6.53;;;26.80;97.00;;;;;;5051253;28;20029;-82
2021/06/10 10:30:42;;;;;;;10.00;7.18;;;27.20;96.90;;;;;;5036298;28;20106;-82
2021/06/10 10:33:19;;;;;;;9.80;6.88;;;27.20;95.80;;;;;;5053613;28;20124;-83
2021/06/10 10:36:05;;;;;;;9.57;6.63;;;27.40;94.30;;;;;;5052205;28;20624;-82
2021/06/10 10:39:05;;;;;;;8.73;7.00;;;27.50;94.00;;;;;;5037350;28;20104;-83
2021/06/10 10:41:59;;;;;;;9.70;7.82;;;27.40;93.30;;;;;;5048044;28;20120;-82
2021/06/10 10:44:44;;;;;;;9.73;7.13;;;27.60;92.30;;;;;;5052414;28;20033;-83
2021/06/10 10:50:43;;;;;;;10.02;7.68;;;27.10;92.30;;;;;;5052147;28;20132;-83
2021/06/10 10:53:47;;;;;;;8.10;6.57;;;26.40;93.00;;;;;;5033951;28;20549;-83
2021/06/10 10:56:44;;;;;;;10.85;7.53;;;26.30;93.40;;;;;;5032496;28;20061;-82
2021/06/10 10:59:59;;;;;;;8.77;6.72;;;25.90;94.40;;;;;;5054087;28;20424;-82
2021/06/10 11:03:07;;;;;;;8.50;6.82;;;25.60;95.20;;;;;;5028525;28;20069;-83
2021/06/10 11:06:33;;;;;;;7.82;6.07;;;25.50;95.70;;;;;;5028653;28;20033;-82
2021/06/10 11:09:26;;;;;;;;;;;;;;;;;;;;;
2021/06/10 11:15:54;;;;;;;8.40;6.97;;;26.10;97.10;;;;;;5047560;28;20031;-85
2021/06/10 11:18:59;;;;;;;10.20;8.45;;;26.90;95.90;;;;;;4963894;28;20022;-83
2021/06/10 11:22:02;;;;;;;8.82;7.30;;;26.80;94.00;;;;;;4971346;28;20046;-82
2021/06/10 11:24:28;;;;;;;9.07;7.25;;;26.50;93.70;;;;;;4969407;28;20027;-83
2021/06/10 11:27:13;;;;;;;9.13;6.95;;;26.20;94.20;;;;;;5024938;28;20041;-82
2021/06/10 11:30:30;;;;;;;11.63;7.65;;;25.70;94.10;;;;;;5037043;28;20032;-82
2021/06/10 11:33:48;;;;;;;9.85;7.63;;;25.50;94.30;;;;;;5026207;28;20044;-83
2021/06/10 11:40:45;;;;;;;;;;;;;;;;;;;;;
2021/06/10 11:46:57;;;;;;;9.23;7.63;;;25.00;95.70;;;;;;5055825;28;20131;-82
2021/06/10 11:53:23;;;;;;;7.82;5.80;;;26.70;94.50;;;;;;5054382;28;20397;-83
2021/06/10 11:56:20;;;;;;;10.07;6.68;;;27.20;94.40;;;;;;5050131;28;20032;-82
2021/06/10 11:59:19;;;;;;;9.77;7.75;;;27.80;91.70;;;;;;5018114;28;20486;-83
2021/06/10 12:02:06;;;;;;;9.48;7.45;;;28.20;90.50;;;;;;5054446;28;20074;-81
2021/06/10 12:05:15;;;;;;;9.68;7.93;;;28.60;89.40;;;;;;5008621;28;20048;-84
2021/06/10 12:07:59;;;;;;;11.95;7.15;;;28.30;89.70;;;;;;5047299;28;20055;-83
2021/06/10 12:10:50;;;;;;;8.10;6.55;;;28.00;87.40;;;;;;5049903;28;20035;-84
2021/06/10 12:14:08;;;;;;;8.30;6.90;;;28.20;87.30;;;;;;5033610;28;20127;-83
2021/06/10 12:21:03;;;;;;;6.75;5.65;;;27.40;88.00;;;;;;5070446;28;20111;-85
2021/06/10 12:24:15;;;;;;;;;;;;;;;;;;;;;
2021/06/10 12:27:23;;;;;;;10.73;8.07;;;28.10;87.20;;;;;;5069712;28;20046;-83
2021/06/10 12:30:32;;;;;;;9.02;6.97;;;27.70;87.00;;;;;;5068464;28;20384;-82
2021/06/10 12:33:43;;;;;;;7.63;6.68;;;27.10;88.70;;;;;;5056789;28;20028;-84
2021/06/10 12:36:48;;;;;;;8.40;6.90;;;26.90;87.80;;;;;;5059732;28;20019;-83
2021/06/10 12:43:15;;;;;;;10.13;7.22;;;26.90;87.90;;;;;;5074026;28;20028;-83
2021/06/10 12:51:36;;;;;;;8.18;7.00;;;27.40;86.00;;;;;;4715862;26;20055;-83
2021/06/10 12:57:43;;;;;;;7.70;6.53;;;27.10;86.10;;;;;;5013324;28;20037;-82
2021/06/10 13:00:29;;;;;;;10.35;7.22;;;26.90;88.20;;;;;;5037721;28;20027;-83
2021/06/10 13:03:17;;;;;;;7.93;6.30;;;26.90;87.60;;;;;;5036901;28;20030;-82
2021/06/10 13:06:08;;;;;;;6.93;5.50;;;26.70;88.00;;;;;;5034192;28;20033;-83
2021/06/10 13:09:16;;;;;;;7.50;5.50;;;26.50;87.40;;;;;;5041284;28;20021;-84
2021/06/10 13:12:39;;;;;;;;;;;;;;;;;;;;;
2021/06/10 13:18:53;;;;;;;8.05;6.00;;;26.20;92.00;;;;;;5030915;28;20033;-82
2021/06/10 13:25:08;;;;;;;8.40;6.00;;;26.10;92.70;;;;;;4991331;28;20019;-83
2021/06/10 13:36:10;;;;;;;;;;;;;;;;;;;;;
2021/06/10 13:42:04;;;;;;;7.43;5.38;;;25.10;95.40;;;;;;5082766;28;20074;-82
2021/06/10 13:48:17;;;;;;;9.18;5.65;;;25.00;94.00;;;;;;5089743;28;20105;-83
2021/06/10 13:50:59;;;;;;;6.43;4.85;;;25.00;94.30;;;;;;5072457;28;20051;-83
2021/06/10 13:53:51;;;;;;;7.55;5.63;;;25.20;93.40;;;;;;5093765;28;20031;-83
2021/06/10 13:56:28;;;;;;;6.57;4.78;;;25.20;92.60;;;;;;5077397;28;20577;-83
2021/06/10 13:59:41;;;;;;;8.45;4.10;;;25.20;92.70;;;;;;5087087;28;20451;-83
2021/06/10 14:02:13;;;;;;;6.28;4.80;;;25.00;91.80;;;;;;5059876;28;20578;-82
2021/06/10 14:04:39;;;;;;;7.00;4.45;;;25.00;91.00;;;;;;5058583;28;20575;-82
2021/06/10 14:07:17;;;;;;;;;;;;;;;;;;;;;
2021/06/10 14:09:43;;;;;;;5.78;4.30;;;25.30;93.90;;;;;;5091854;28;20027;-84
2021/06/10 14:12:37;;;;;;;5.55;4.10;;;24.90;94.60;;;;;;5071777;28;20056;-84
2021/06/10 14:15:03;;;;;;;5.35;3.83;;;24.50;97.10;;;;;;5073614;28;20040;-82